Time;durP1;ratioP1;P1;durP2;ratioP2;P2;SDS_P1;SDS_P2;PMS_P1;PMS_P2;Temp;Humidity;BMP_temperature;BMP_pressure;BME280_temperature;BME280_humidity;BME280_pressure;Samples;Min_cycle;Max_cycle;Signal;HPM_P1;HPM_P2
2023/04/27 00:00:17;;;;;;;49.60;20.10;;;;;;;2.62;67.90;98732.48;105265;1256;97874;-68
2023/04/27 00:02:45;;;;;;;46.40;20.50;;;;;;;2.56;67.50;98734.00;104967;1262;107650;-67
2023/04/27 00:05:12;;;;;;;41.70;18.60;;;;;;;2.53;68.19;98727.98;105019;1262;99237;-68
2023/04/27 00:07:40;;;;;;;43.40;19.10;;;;;;;2.49;68.36;98731.03;105234;1264;98213;-68
2023/04/27 00:10:08;;;;;;;52.00;23.10;;;;;;;2.46;68.22;98728.69;105162;1256;98676;-68
2023/04/27 00:12:35;;;;;;;45.00;19.80;;;;;;;2.46;68.71;98730.67;105236;1267;99073;-68
2023/04/27 00:15:02;;;;;;;43.20;20.60;;;;;;;2.46;68.47;98727.38;105034;1265;97982;-68
2023/04/27 00:17:29;;;;;;;44.40;20.60;;;;;;;2.45;68.54;98727.16;105070;1267;97990;-68
2023/04/27 00:19:57;;;;;;;45.20;20.50;;;;;;;2.41;68.46;98725.92;105151;1253;97890;-71
2023/04/27 00:22:24;;;;;;;52.20;21.00;;;;;;;2.37;68.96;98726.45;105016;1267;99075;-69
2023/04/27 00:24:51;;;;;;;58.10;22.10;;;;;;;2.33;68.92;98724.36;105229;1266;99230;-67
2023/04/27 00:27:18;;;;;;;53.10;21.60;;;;;;;2.28;68.96;98725.23;105250;1264;97911;-66
2023/04/27 00:29:45;;;;;;;38.00;17.10;;;;;;;2.23;69.18;98722.98;105206;1264;97926;-68
2023/04/27 00:32:12;;;;;;;34.20;15.30;;;;;;;2.19;69.05;98725.85;105237;1257;97990;-68
2023/04/27 00:34:39;;;;;;;26.60;13.70;;;;;;;2.15;69.48;98723.59;105520;1258;97832;-68
2023/04/27 00:37:06;;;;;;;30.00;14.10;;;;;;;2.11;69.50;98721.24;105279;1267;98781;-67
2023/04/27 00:39:34;;;;;;;30.50;14.60;;;;;;;2.08;69.77;98721.55;104853;1271;97972;-68
2023/04/27 00:42:01;;;;;;;40.10;17.20;;;;;;;2.09;69.56;98720.20;105225;1259;98335;-67
2023/04/27 00:44:29;;;;;;;34.00;16.40;;;;;;;2.10;69.65;98720.21;105249;1257;98028;-67
2023/04/27 00:46:57;;;;;;;32.30;16.10;;;;;;;2.11;69.82;98720.60;105231;1256;98266;-67
2023/04/27 00:49:25;;;;;;;34.50;15.40;;;;;;;2.16;69.64;98724.09;105226;1258;108285;-67
2023/04/27 00:51:53;;;;;;;34.00;15.00;;;;;;;2.20;69.47;98723.23;105227;1266;97976;-68
2023/04/27 00:54:21;;;;;;;31.70;15.20;;;;;;;2.27;69.65;98727.44;105197;1257;97803;-67
2023/04/27 00:56:50;;;;;;;34.50;14.60;;;;;;;2.28;69.47;98724.64;105271;1268;112192;-68
2023/04/27 00:59:18;;;;;;;34.60;16.90;;;;;;;2.28;69.53;98724.48;104917;1257;97980;-68
2023/04/27 01:01:46;;;;;;;43.30;18.30;;;;;;;2.28;69.72;98722.95;105059;1259;107124;-67
2023/04/27 01:04:13;;;;;;;38.90;17.20;;;;;;;2.27;69.95;98726.14;105121;1256;97861;-66
2023/04/27 01:06:41;;;;;;;68.90;24.60;;;;;;;2.22;70.03;98726.10;105242;1266;97879;-67
2023/04/27 01:09:08;;;;;;;45.60;19.40;;;;;;;2.18;70.09;98725.89;105109;1264;98002;-68
2023/04/27 01:11:35;;;;;;;37.90;17.00;;;;;;;2.15;69.96;98727.83;105228;1264;97962;-67
2023/04/27 01:14:04;;;;;;;40.10;17.70;;;;;;;2.13;69.94;98728.55;105252;1260;98149;-67
2023/04/27 01:16:32;;;;;;;47.80;20.60;;;;;;;2.07;70.40;98730.13;105153;1264;97915;-67
2023/04/27 01:18:59;;;;;;;50.50;20.80;;;;;;;2.00;70.48;98731.35;104964;1267;97915;-67
2023/04/27 01:21:26;;;;;;;40.50;18.40;;;;;;;1.92;70.57;98734.25;105015;1267;97957;-66
2023/04/27 01:23:53;;;;;;;36.10;16.90;;;;;;;1.85;70.93;98738.78;105175;1257;97868;-66
2023/04/27 01:26:21;;;;;;;34.60;16.40;;;;;;;1.79;70.99;98737.68;105255;1259;97981;-66
2023/04/27 01:28:48;;;;;;;33.30;15.80;;;;;;;1.74;71.16;98739.91;105154;1258;99211;-66
2023/04/27 01:31:15;;;;;;;32.80;15.70;;;;;;;1.68;71.35;98736.38;105267;1266;98393;-66
2023/04/27 01:33:42;;;;;;;31.70;16.40;;;;;;;1.61;71.27;98739.92;105117;1258;97983;-66
2023/04/27 01:36:10;;;;;;;30.90;14.80;;;;;;;1.52;71.53;98741.70;105139;1261;99231;-66
2023/04/27 01:38:36;;;;;;;28.60;15.00;;;;;;;1.45;71.63;98738.66;105087;1267;99225;-66
2023/04/27 01:41:05;;;;;;;30.70;16.20;;;;;;;1.36;71.79;98746.75;105149;1266;97907;-69
2023/04/27 01:43:31;;;;;;;35.60;17.50;;;;;;;1.31;72.08;98746.73;105068;1256;99212;-69
2023/04/27 01:46:06;;;;;;;33.90;16.40;;;;;;;1.27;72.46;98748.35;105217;1267;97963;-68
2023/04/27 01:48:34;;;;;;;33.10;17.00;;;;;;;1.29;72.55;98745.52;105279;1254;97889;-65
2023/04/27 01:51:02;;;;;;;32.60;15.90;;;;;;;1.39;72.45;98742.14;105234;1266;108658;-66
2023/04/27 01:53:30;;;;;;;34.40;15.60;;;;;;;1.42;72.19;98743.30;105226;1265;97890;-65
2023/04/27 01:56:02;;;;;;;31.40;15.60;;;;;;;1.44;72.30;98743.60;105278;1257;98483;-65
2023/04/27 01:58:29;;;;;;;36.50;16.50;;;;;;;1.47;72.53;98741.80;105245;1266;110799;-66
2023/04/27 02:00:56;;;;;;;37.50;17.50;;;;;;;1.46;72.38;98745.19;105074;1259;97860;-67
2023/04/27 02:03:23;;;;;;;35.70;17.40;;;;;;;1.38;72.53;98749.95;105226;1267;97886;-67
2023/04/27 02:05:50;;;;;;;37.20;17.90;;;;;;;1.38;72.84;98751.35;105247;1267;97918;-67
2023/04/27 02:08:17;;;;;;;37.00;18.80;;;;;;;1.37;73.21;98753.02;105254;1267;97944;-67
2023/04/27 02:10:44;;;;;;;47.60;20.40;;;;;;;1.39;73.28;98748.84;105180;1264;99192;-67
2023/04/27 02:13:11;;;;;;;46.70;21.30;;;;;;;1.32;73.39;98749.56;105304;1256;98217;-66
2023/04/27 02:15:38;;;;;;;42.40;19.80;;;;;;;1.25;73.77;98745.36;105232;1258;97960;-66
2023/04/27 02:18:05;;;;;;;43.10;19.20;;;;;;;1.17;74.65;98748.11;105296;1268;97916;-66
2023/04/27 02:20:32;;;;;;;43.70;20.60;;;;;;;1.09;74.98;98742.95;105264;1267;113292;-66
2023/04/27 02:23:00;;;;;;;63.40;26.30;;;;;;;1.03;75.34;98742.37;105433;1267;97971;-66
2023/04/27 02:25:28;;;;;;;78.80;29.50;;;;;;;0.97;76.10;98739.45;105056;1269;108899;-66
2023/04/27 02:27:55;;;;;;;79.70;33.20;;;;;;;0.94;76.13;98743.11;104734;1257;98015;-65
2023/04/27 02:30:23;;;;;;;91.50;35.60;;;;;;;0.93;76.23;98740.02;105050;1270;98391;-67
2023/04/27 02:32:50;;;;;;;91.10;34.90;;;;;;;0.94;76.28;98740.69;105064;1270;111233;-67
2023/04/27 02:35:18;;;;;;;76.70;30.20;;;;;;;0.96;76.26;98739.52;105270;1264;99506;-67
2023/04/27 02:37:45;;;;;;;67.30;29.50;;;;;;;0.98;76.21;98738.75;105202;1267;97867;-67
2023/04/27 02:40:12;;;;;;;69.80;28.40;;;;;;;1.03;76.32;98736.71;104968;1261;98570;-67
2023/04/27 02:42:39;;;;;;;66.50;27.30;;;;;;;1.07;76.32;98733.68;104983;1254;97951;-66
2023/04/27 02:45:07;;;;;;;66.30;29.10;;;;;;;1.07;76.33;98734.16;105180;1257;97931;-67
2023/04/27 02:47:34;;;;;;;70.20;29.50;;;;;;;1.10;76.64;98736.31;105263;1267;97899;-66
2023/04/27 02:50:02;;;;;;;83.50;31.30;;;;;;;1.17;76.53;98738.73;105278;1257;99184;-67
2023/04/27 02:52:29;;;;;;;80.50;30.30;;;;;;;1.18;76.34;98737.83;105208;1257;97885;-67
2023/04/27 02:54:56;;;;;;;69.20;28.80;;;;;;;1.13;76.20;98737.88;105257;1257;97945;-67
2023/04/27 02:57:23;;;;;;;54.90;24.70;;;;;;;1.11;76.47;98736.86;105201;1257;97899;-67
2023/04/27 02:59:50;;;;;;;49.00;23.30;;;;;;;1.12;76.36;98742.60;105114;1258;97834;-67
2023/04/27 03:02:17;;;;;;;54.80;24.10;;;;;;;1.13;76.39;98740.77;105135;1270;98230;-71
2023/04/27 03:04:44;;;;;;;63.80;28.90;;;;;;;1.10;76.41;98745.91;105125;1267;97932;-71
2023/04/27 03:07:11;;;;;;;69.60;31.60;;;;;;;1.08;76.56;98745.46;105300;1254;97899;-67
2023/04/27 03:09:38;;;;;;;71.80;28.10;;;;;;;1.06;76.55;98750.13;105292;1266;99053;-66
2023/04/27 03:12:05;;;;;;;60.00;27.10;;;;;;;1.06;76.48;98753.92;105210;1264;97911;-65
2023/04/27 03:14:32;;;;;;;55.30;27.30;;;;;;;1.05;76.45;98755.95;105206;1275;98030;-66
2023/04/27 03:16:59;;;;;;;58.40;26.10;;;;;;;1.01;76.47;98756.00;105297;1256;98217;-65
2023/04/27 03:19:26;;;;;;;60.80;26.50;;;;;;;0.98;76.64;98755.91;105248;1267;98433;-66
2023/04/27 03:21:56;;;;;;;51.40;23.60;;;;;;;1.03;76.77;98761.33;105198;1258;98315;-65
2023/04/27 03:24:26;;;;;;;51.60;24.90;;;;;;;1.11;76.75;98762.45;105055;1258;108278;-66
2023/04/27 03:26:54;;;;;;;43.40;21.20;;;;;;;1.21;76.58;98761.02;105244;1265;97915;-66
2023/04/27 03:29:20;;;;;;;42.30;20.10;;;;;;;1.25;76.31;98764.64;105127;1256;97919;-65
2023/04/27 03:31:48;;;;;;;41.50;18.70;;;;;;;1.34;76.40;98762.98;105223;1257;97902;-65
2023/04/27 03:34:15;;;;;;;41.60;20.20;;;;;;;1.41;76.21;98764.57;105156;1256;97996;-66
2023/04/27 03:36:42;;;;;;;47.60;23.20;;;;;;;1.44;76.26;98766.93;105272;1257;98888;-65
2023/04/27 03:39:09;;;;;;;47.20;21.80;;;;;;;1.44;76.37;98770.43;105164;1267;97892;-66
2023/04/27 03:41:36;;;;;;;41.00;22.20;;;;;;;1.50;76.42;98771.98;105249;1254;97989;-65
2023/04/27 03:44:03;;;;;;;45.30;22.10;;;;;;;1.53;76.38;98773.05;105126;1257;99091;-65
2023/04/27 03:46:31;;;;;;;46.30;21.90;;;;;;;1.53;76.41;98778.83;105240;1267;98520;-65
2023/04/27 03:48:58;;;;;;;48.30;21.30;;;;;;;1.50;76.58;98781.27;105186;1269;97978;-66
2023/04/27 03:51:25;;;;;;;51.00;24.00;;;;;;;1.52;76.90;98784.75;105236;1257;97941;-66
2023/04/27 03:53:52;;;;;;;44.70;21.80;;;;;;;1.56;76.96;98784.38;105154;1257;112215;-66
2023/04/27 03:56:20;;;;;;;40.40;19.20;;;;;;;1.60;76.78;98786.20;105166;1266;97979;-65
2023/04/27 03:58:47;;;;;;;35.10;17.70;;;;;;;1.62;76.86;98790.02;105209;1256;98056;-65
2023/04/27 04:01:15;;;;;;;35.60;17.50;;;;;;;1.68;76.61;98793.98;105198;1267;98019;-65
2023/04/27 04:03:42;;;;;;;34.80;18.40;;;;;;;1.76;76.48;98791.63;105127;1255;98498;-65
2023/04/27 04:06:09;;;;;;;32.20;17.00;;;;;;;1.84;76.64;98791.63;105229;1257;97947;-66
2023/04/27 04:08:37;;;;;;;33.90;18.00;;;;;;;1.93;76.51;98791.61;105048;1267;98701;-67
2023/04/27 04:11:04;;;;;;;36.00;17.00;;;;;;;2.02;76.38;98794.80;104991;1267;97919;-67
2023/04/27 04:13:31;;;;;;;30.60;14.50;;;;;;;2.14;76.27;98799.67;104922;1269;97949;-67
2023/04/27 04:16:05;;;;;;;29.60;15.40;;;;;;;2.23;76.28;98800.79;105077;1254;97959;-67
2023/04/27 04:18:33;;;;;;;26.60;14.50;;;;;;;2.34;76.14;98805.77;104978;1258;112168;-67
2023/04/27 04:21:00;;;;;;;41.50;20.60;;;;;;;2.42;76.23;98808.70;105190;1257;97944;-66
2023/04/27 04:23:27;;;;;;;41.40;20.30;;;;;;;2.50;76.25;98807.66;105116;1257;99269;-69
2023/04/27 04:25:57;;;;;;;32.30;15.50;;;;;;;2.59;76.67;98810.77;105159;1257;97963;-65
2023/04/27 04:28:24;;;;;;;34.10;17.50;;;;;;;2.65;76.37;98807.34;105188;1257;97861;-67
2023/04/27 04:30:51;;;;;;;29.30;15.90;;;;;;;2.71;76.39;98810.25;105243;1267;97909;-66
2023/04/27 04:33:18;;;;;;;31.30;17.00;;;;;;;2.77;76.48;98811.93;105245;1267;98818;-66
2023/04/27 04:35:45;;;;;;;29.00;15.20;;;;;;;2.85;76.51;98813.08;105217;1254;97956;-66
2023/04/27 04:38:13;;;;;;;31.90;15.70;;;;;;;2.87;76.53;98818.02;105322;1254;97881;-67
2023/04/27 04:40:41;;;;;;;42.20;20.10;;;;;;;2.93;76.82;98817.96;105309;1253;97894;-66
2023/04/27 04:43:12;;;;;;;49.00;24.20;;;;;;;3.01;76.49;98822.09;105215;1260;112328;-67
2023/04/27 04:45:39;;;;;;;54.60;26.70;;;;;;;3.08;76.66;98822.14;105254;1257;99315;-67
2023/04/27 04:48:07;;;;;;;53.40;25.90;;;;;;;3.14;76.70;98824.73;105218;1258;99231;-68
2023/04/27 04:50:34;;;;;;;59.00;29.00;;;;;;;3.23;76.65;98822.50;104983;1260;97881;-66
2023/04/27 04:53:01;;;;;;;70.60;35.00;;;;;;;3.37;75.81;98825.78;105237;1259;99173;-66
2023/04/27 04:55:29;;;;;;;64.40;29.90;;;;;;;3.54;76.34;98829.98;105179;1257;97979;-66
2023/04/27 04:57:56;;;;;;;35.40;19.10;;;;;;;3.66;76.82;98827.73;105210;1267;97989;-66
2023/04/27 05:00:23;;;;;;;30.90;17.10;;;;;;;3.83;76.58;98832.09;105336;1268;97810;-66
2023/04/27 05:02:50;;;;;;;27.70;14.30;;;;;;;3.97;76.57;98832.05;105223;1257;99104;-66
2023/04/27 05:05:17;;;;;;;22.30;11.30;;;;;;;4.08;76.16;98836.36;105240;1267;99228;-67
2023/04/27 05:07:44;;;;;;;24.10;11.20;;;;;;;4.16;75.89;98833.94;105174;1257;97866;-67
2023/04/27 05:10:11;;;;;;;20.10;10.30;;;;;;;4.24;76.18;98831.38;105188;1264;98895;-67
2023/04/27 05:12:38;;;;;;;20.30;10.90;;;;;;;4.29;76.12;98832.51;105136;1267;97960;-67
2023/04/27 05:15:06;;;;;;;24.70;12.70;;;;;;;4.34;76.48;98833.61;104867;1260;99286;-67
2023/04/27 05:17:32;;;;;;;24.60;12.50;;;;;;;4.43;75.94;98837.92;105160;1267;112402;-65
2023/04/27 05:20:00;;;;;;;25.60;12.00;;;;;;;4.49;75.89;98840.20;105291;1257;99191;-65
2023/04/27 05:22:27;;;;;;;27.10;12.60;;;;;;;4.56;75.81;98842.38;105227;1256;98004;-65
2023/04/27 05:24:56;;;;;;;26.30;12.40;;;;;;;4.62;75.86;98843.96;105194;1262;97866;-66
2023/04/27 05:27:23;;;;;;;23.80;12.90;;;;;;;4.68;75.88;98846.64;105186;1254;97973;-66
2023/04/27 05:29:50;;;;;;;28.70;14.20;;;;;;;4.76;75.49;98850.45;105229;1267;99078;-66
2023/04/27 05:32:17;;;;;;;26.90;13.20;;;;;;;4.87;75.33;98849.36;105214;1256;97896;-66
2023/04/27 05:34:44;;;;;;;28.10;13.40;;;;;;;4.97;74.91;98847.58;105244;1267;97883;-66
2023/04/27 05:37:15;;;;;;;28.70;13.50;;;;;;;5.08;74.61;98851.65;104802;1272;98029;-67
2023/04/27 05:39:42;;;;;;;24.60;13.40;;;;;;;5.20;73.91;98851.27;105278;1257;97966;-67
2023/04/27 05:42:09;;;;;;;26.50;12.80;;;;;;;5.32;73.65;98856.14;105150;1254;99291;-67
2023/04/27 05:44:36;;;;;;;25.80;12.20;;;;;;;5.41;73.38;98858.84;105001;1267;99240;-69
2023/04/27 05:47:03;;;;;;;31.00;12.70;;;;;;;5.54;73.08;98860.18;105122;1256;97900;-66
2023/04/27 05:49:30;;;;;;;38.30;13.30;;;;;;;5.68;72.63;98859.42;105245;1256;99192;-70
2023/04/27 05:51:57;;;;;;;27.00;14.00;;;;;;;5.82;72.09;98866.52;105312;1257;98332;-67
2023/04/27 05:54:26;;;;;;;25.80;13.10;;;;;;;5.94;72.47;98867.45;105299;1257;99244;-67
2023/04/27 05:56:53;;;;;;;30.10;14.40;;;;;;;6.06;72.63;98866.45;105207;1257;99202;-65
2023/04/27 05:59:20;;;;;;;35.10;15.20;;;;;;;6.16;72.25;98873.16;105230;1256;99597;-65
2023/04/27 06:01:47;;;;;;;22.90;14.60;;;;;;;6.29;71.85;98878.70;105212;1258;97974;-66
2023/04/27 06:04:15;;;;;;;31.30;14.20;;;;;;;6.40;71.29;98877.08;105238;1256;97806;-66
2023/04/27 06:06:43;;;;;;;21.40;11.00;;;;;;;6.48;71.06;98877.91;105254;1256;97961;-66
2023/04/27 06:09:10;;;;;;;21.50;10.50;;;;;;;6.59;70.74;98879.65;105338;1257;99197;-66
2023/04/27 06:11:38;;;;;;;19.30;10.20;;;;;;;6.71;69.73;98880.10;105138;1257;98009;-66
2023/04/27 06:14:05;;;;;;;20.20;9.80;;;;;;;6.80;69.51;98881.23;105071;1258;99237;-66
2023/04/27 06:16:32;;;;;;;17.20;9.30;;;;;;;6.86;68.54;98880.18;105266;1257;98309;-66
2023/04/27 06:18:59;;;;;;;18.80;9.70;;;;;;;6.93;68.39;98881.70;105276;1267;97893;-66
2023/04/27 06:21:27;;;;;;;21.50;10.70;;;;;;;6.99;67.39;98880.19;105188;1254;99205;-67
2023/04/27 06:23:54;;;;;;;18.90;10.20;;;;;;;7.10;67.87;98880.81;105202;1258;98363;-66
2023/04/27 06:26:21;;;;;;;161.40;42.30;;;;;;;7.34;67.71;98884.05;105143;1256;97905;-67
2023/04/27 06:28:48;;;;;;;23.50;9.80;;;;;;;7.60;66.38;98881.13;105202;1267;98779;-67
2023/04/27 06:31:15;;;;;;;35.30;15.20;;;;;;;7.81;65.61;98881.13;105246;1257;97965;-67
2023/04/27 06:33:43;;;;;;;36.50;12.90;;;;;;;8.00;64.80;98878.73;104824;1270;107145;-67
2023/04/27 06:36:10;;;;;;;15.50;8.30;;;;;;;8.22;64.67;98881.86;105022;1256;97873;-67
2023/04/27 06:38:37;;;;;;;20.70;9.30;;;;;;;8.43;63.92;98889.56;105263;1253;98677;-67
2023/04/27 06:41:04;;;;;;;18.70;9.60;;;;;;;8.66;64.37;98889.93;105203;1256;97934;-67
2023/04/27 06:43:31;;;;;;;74.50;22.00;;;;;;;8.93;62.72;98890.52;105195;1258;97883;-67
2023/04/27 06:45:58;;;;;;;16.70;6.90;;;;;;;9.23;62.98;98889.44;105146;1253;99334;-66
2023/04/27 06:48:25;;;;;;;15.90;6.60;;;;;;;9.50;60.45;98889.11;105219;1256;99179;-66
2023/04/27 06:50:53;;;;;;;13.60;6.70;;;;;;;9.78;60.50;98888.10;105298;1256;97899;-68
2023/04/27 06:53:20;;;;;;;24.10;9.10;;;;;;;10.12;60.12;98890.67;105271;1264;99190;-66
2023/04/27 06:55:47;;;;;;;19.70;9.00;;;;;;;10.39;58.01;98888.70;105217;1256;99213;-67
2023/04/27 06:58:14;;;;;;;27.70;10.30;;;;;;;10.56;57.79;98890.24;104996;1257;370214;-66
2023/04/27 07:00:42;;;;;;;13.10;5.90;;;;;;;10.71;56.60;98886.58;105107;1256;99096;-66
2023/04/27 07:03:09;;;;;;;15.90;6.10;;;;;;;10.73;54.96;98888.60;105182;1256;97884;-66
2023/04/27 07:05:36;;;;;;;14.20;4.80;;;;;;;10.65;54.72;98886.30;105117;1270;99321;-68
2023/04/27 07:08:03;;;;;;;8.90;4.20;;;;;;;10.61;53.54;98887.95;105119;1256;97897;-66
2023/04/27 07:10:34;;;;;;;;;;;;;;;10.63;53.60;98886.09;105226;1268;97889;-70
2023/04/27 07:13:01;;;;;;;27.50;9.60;;;;;;;10.66;54.35;98890.09;105273;1256;98010;-67
2023/04/27 07:15:30;;;;;;;8.00;3.90;;;;;;;10.74;52.55;98889.40;105079;1257;97934;-67
2023/04/27 07:17:57;;;;;;;24.00;7.40;;;;;;;10.82;52.78;98891.90;105344;1256;98825;-67
2023/04/27 07:20:25;;;;;;;10.40;3.80;;;;;;;10.99;52.68;98890.48;105264;1264;98079;-67
2023/04/27 07:22:52;;;;;;;17.10;7.10;;;;;;;11.10;51.56;98894.65;105215;1256;97991;-67
2023/04/27 07:25:20;;;;;;;8.70;4.10;;;;;;;11.14;51.71;98894.89;105167;1257;97896;-67
2023/04/27 07:27:47;;;;;;;9.40;4.60;;;;;;;11.35;51.94;98888.78;105275;1261;97925;-67
2023/04/27 07:30:16;;;;;;;10.10;4.50;;;;;;;11.44;51.00;98891.75;105278;1267;97903;-67
2023/04/27 07:32:43;;;;;;;9.00;4.80;;;;;;;11.54;50.89;98893.45;105208;1275;108492;-67
2023/04/27 07:35:10;;;;;;;9.90;4.90;;;;;;;11.83;51.33;98892.76;104922;1258;98014;-67
2023/04/27 07:37:37;;;;;;;9.60;4.50;;;;;;;12.02;49.91;98893.45;105234;1252;97903;-67
2023/04/27 07:40:15;;;;;;;5.40;3.60;;;;;;;12.14;49.29;98891.93;105201;1258;97975;-67
2023/04/27 07:42:43;;;;;;;8.70;4.20;;;;;;;12.30;49.04;98889.52;105254;1254;100266;-68
2023/04/27 07:45:11;;;;;;;7.80;3.80;;;;;;;12.60;48.56;98887.30;105231;1267;108194;-68
2023/04/27 07:47:38;;;;;;;8.10;3.90;;;;;;;12.85;48.33;98886.70;105283;1256;97912;-67
2023/04/27 07:50:07;;;;;;;6.80;3.40;;;;;;;13.20;48.16;98890.77;105303;1260;99077;-68
2023/04/27 07:52:34;;;;;;;42.50;13.50;;;;;;;13.45;47.16;98885.52;105313;1257;112055;-68
2023/04/27 07:55:00;;;;;;;28.80;10.10;;;;;;;13.68;45.88;98881.55;105039;1254;97961;-68
2023/04/27 07:57:28;;;;;;;28.80;11.40;;;;;;;13.76;45.74;98880.33;105212;1256;98054;-66
2023/04/27 07:59:56;;;;;;;8.40;4.10;;;;;;;13.95;44.05;98879.96;105447;1256;98028;-67
2023/04/27 08:02:23;;;;;;;13.50;5.70;;;;;;;13.92;44.43;98880.95;105307;1256;97897;-65
2023/04/27 08:04:50;;;;;;;8.90;4.30;;;;;;;13.83;44.70;98885.29;104999;1259;98799;-66
2023/04/27 08:07:18;;;;;;;28.20;10.50;;;;;;;13.68;43.83;98889.73;105251;1258;98394;-66
2023/04/27 08:09:49;;;;;;;13.70;6.20;;;;;;;13.35;43.87;98891.33;105236;1256;107436;-66
2023/04/27 08:12:16;;;;;;;;;;;;;;;13.08;44.23;98891.63;105245;1253;98764;-66
2023/04/27 08:14:45;;;;;;;29.30;10.70;;;;;;;13.01;44.20;98890.62;105259;1256;97890;-66
2023/04/27 08:17:12;;;;;;;18.30;7.20;;;;;;;12.89;44.02;98889.23;105075;1260;111866;-66
2023/04/27 08:19:40;;;;;;;6.60;3.80;;;;;;;12.65;44.02;98893.58;105266;1267;97899;-66
2023/04/27 08:22:07;;;;;;;6.30;3.30;;;;;;;12.52;44.88;98888.11;105198;1256;98588;-67
2023/04/27 08:24:35;;;;;;;8.40;3.70;;;;;;;12.44;44.30;98887.67;105174;1256;97902;-67
2023/04/27 08:27:02;;;;;;;5.20;3.10;;;;;;;12.32;44.13;98890.16;105142;1257;97887;-66
2023/04/27 08:29:29;;;;;;;6.10;2.90;;;;;;;12.17;42.90;98887.41;105145;1256;112284;-69
2023/04/27 08:32:00;;;;;;;5.90;2.90;;;;;;;11.94;43.36;98892.51;104917;1269;99966;-66
2023/04/27 08:34:28;;;;;;;17.40;6.90;;;;;;;12.23;44.68;98889.89;105013;1260;107654;-66
2023/04/27 08:36:55;;;;;;;9.00;3.30;;;;;;;12.82;45.05;98887.73;105205;1257;98128;-66
2023/04/27 08:39:27;;;;;;;7.90;3.10;;;;;;;13.34;45.70;98890.32;105272;1257;98548;-66
2023/04/27 08:41:57;;;;;;;8.10;3.90;;;;;;;13.63;42.24;98883.86;105281;1256;112051;-68
2023/04/27 08:44:24;;;;;;;20.10;6.30;;;;;;;13.57;41.44;98882.48;104947;1264;98033;-65
2023/04/27 08:46:51;;;;;;;10.90;4.50;;;;;;;13.42;42.34;98888.95;105212;1254;97894;-67
2023/04/27 08:49:19;;;;;;;6.00;3.30;;;;;;;13.22;42.05;98894.20;105255;1257;97994;-66
2023/04/27 08:51:47;;;;;;;13.30;5.90;;;;;;;13.00;42.58;98891.30;105275;1258;99113;-67
2023/04/27 08:54:14;;;;;;;10.30;4.00;;;;;;;12.99;43.46;98890.91;105171;1268;99078;-66
2023/04/27 08:56:41;;;;;;;6.80;3.30;;;;;;;13.06;42.86;98893.27;105258;1256;97950;-66
2023/04/27 08:59:15;;;;;;;8.10;3.90;;;;;;;13.04;41.79;98894.76;105271;1256;97913;-67
2023/04/27 09:01:45;;;;;;;3.90;3.00;;;;;;;12.92;41.84;98896.84;105267;1256;99249;-66
2023/04/27 09:04:13;;;;;;;4.50;3.20;;;;;;;12.80;41.21;98898.64;105272;1256;98043;-67
2023/04/27 09:06:41;;;;;;;5.70;3.10;;;;;;;12.52;41.85;98899.42;105042;1260;110928;-67
2023/04/27 09:09:08;;;;;;;27.50;9.80;;;;;;;12.21;42.92;98901.41;105305;1268;97992;-68
2023/04/27 09:11:37;;;;;;;20.00;7.90;;;;;;;12.00;43.02;98903.86;105292;1267;99189;-68
2023/04/27 09:14:22;;;;;;;8.60;4.40;;;;;;;11.75;43.50;98903.52;105042;1259;97934;-68
2023/04/27 09:16:56;;;;;;;10.10;5.00;;;;;;;11.45;44.01;98902.96;105274;1253;99077;-68
2023/04/27 09:19:25;;;;;;;7.00;3.90;;;;;;;11.27;43.30;98903.46;105304;1253;111183;-68
2023/04/27 09:22:04;;;;;;;7.50;3.70;;;;;;;11.11;43.53;98904.67;105040;1261;99094;-68
2023/04/27 09:24:31;;;;;;;6.60;4.60;;;;;;;11.02;42.99;98901.98;105151;1256;107426;-68
2023/04/27 09:26:59;;;;;;;9.70;5.40;;;;;;;11.05;43.43;98904.17;104968;1257;97960;-68
2023/04/27 09:29:37;;;;;;;5.60;3.20;;;;;;;11.01;43.28;98900.02;105192;1256;98017;-69
2023/04/27 09:32:19;;;;;;;7.30;5.20;;;;;;;11.08;43.38;98900.19;105223;1254;112404;-68
2023/04/27 09:34:47;;;;;;;6.00;3.60;;;;;;;11.22;44.43;98899.19;104812;1260;98396;-68
2023/04/27 09:37:15;;;;;;;6.00;3.10;;;;;;;11.25;43.81;98895.84;105224;1254;108585;-68
2023/04/27 09:39:42;;;;;;;6.70;3.00;;;;;;;11.33;44.05;98903.36;105206;1264;98084;-68
2023/04/27 09:42:11;;;;;;;4.10;3.10;;;;;;;11.47;43.89;98898.52;105217;1256;97891;-67
2023/04/27 09:44:38;;;;;;;5.70;3.50;;;;;;;11.47;41.18;98900.16;105169;1271;112328;-67
2023/04/27 09:47:06;;;;;;;6.30;3.40;;;;;;;11.37;42.39;98902.56;105046;1254;97972;-67
2023/04/27 09:49:34;;;;;;;4.50;3.10;;;;;;;11.46;43.46;98898.60;104836;1260;106189;-68
2023/04/27 09:52:01;;;;;;;6.20;3.30;;;;;;;11.61;43.77;98901.02;105261;1268;97899;-67
2023/04/27 09:54:32;;;;;;;9.40;5.00;;;;;;;11.73;44.63;98899.16;105359;1252;98656;-66
2023/04/27 09:57:27;;;;;;;11.20;5.00;;;;;;;11.77;44.44;98897.09;105030;1254;111263;-67
2023/04/27 10:00:15;;;;;;;10.10;4.50;;;;;;;11.82;43.23;98898.52;105270;1253;99214;-67
2023/04/27 10:02:54;;;;;;;12.60;5.50;;;;;;;11.89;43.14;98899.41;105214;1256;109169;-67
2023/04/27 10:05:50;;;;;;;7.20;3.70;;;;;;;12.04;43.19;98900.11;105298;1256;97974;-67
2023/04/27 10:08:17;;;;;;;10.20;5.30;;;;;;;12.24;43.95;98898.52;104917;1261;98079;-67
2023/04/27 10:10:49;;;;;;;16.20;6.60;;;;;;;12.74;43.27;98896.34;105295;1253;112284;-67
2023/04/27 10:13:23;;;;;;;7.70;3.30;;;;;;;13.17;42.11;98893.30;105067;1261;98252;-66
2023/04/27 10:15:52;;;;;;;11.20;4.40;;;;;;;13.20;40.92;98890.77;105247;1256;108632;-67
2023/04/27 10:18:30;;;;;;;6.30;3.30;;;;;;;13.19;40.51;98893.23;105339;1258;97966;-67
2023/04/27 10:21:09;;;;;;;4.80;3.40;;;;;;;13.14;40.55;98892.74;105196;1253;98216;-66
2023/04/27 10:23:47;;;;;;;6.90;3.70;;;;;;;13.03;40.17;98895.21;105384;1256;112382;-66
2023/04/27 10:26:27;;;;;;;5.10;2.90;;;;;;;12.92;40.42;98892.05;105295;1267;99587;-66
2023/04/27 10:29:09;;;;;;;6.70;3.10;;;;;;;12.85;39.85;98890.16;105316;1256;108077;-67
2023/04/27 10:31:42;;;;;;;;;;;;;;;12.88;39.69;98889.88;105285;1254;97901;-67
2023/04/27 10:34:10;;;;;;;8.50;3.30;;;;;;;12.96;39.73;98890.16;105101;1261;98651;-66
2023/04/27 10:36:39;;;;;;;5.70;3.10;;;;;;;12.88;40.42;98888.77;105296;1253;111759;-66
2023/04/27 10:39:17;;;;;;;15.30;6.00;;;;;;;12.78;41.29;98889.20;105191;1256;98910;-66
2023/04/27 10:41:52;;;;;;;5.50;3.70;;;;;;;12.62;41.15;98890.77;104929;1254;107675;-66
2023/04/27 10:44:28;;;;;;;7.30;3.50;;;;;;;12.49;41.68;98897.93;105171;1255;98522;-67
2023/04/27 10:46:58;;;;;;;7.00;3.90;;;;;;;12.38;39.63;98898.78;104677;1262;98124;-68
2023/04/27 10:49:29;;;;;;;10.80;4.70;;;;;;;12.21;39.59;98895.55;105140;1256;111983;-67
2023/04/27 10:51:58;;;;;;;14.50;6.80;;;;;;;12.16;39.95;98896.40;105229;1253;99285;-67
2023/04/27 10:54:28;;;;;;;6.80;4.10;;;;;;;12.16;41.41;98898.30;104878;1257;108162;-67
2023/04/27 10:57:09;;;;;;;6.70;3.80;;;;;;;12.19;41.09;98893.02;105177;1256;97894;-67
2023/04/27 10:59:51;;;;;;;6.60;3.20;;;;;;;12.20;41.94;98896.23;105196;1253;98101;-67
2023/04/27 11:02:27;;;;;;;6.90;3.80;;;;;;;12.27;40.71;98896.85;105082;1259;111210;-67
2023/04/27 11:04:55;;;;;;;3.40;2.60;;;;;;;12.45;40.37;98894.09;104961;1257;99193;-67
2023/04/27 11:07:26;;;;;;;5.60;3.10;;;;;;;12.34;38.76;98894.73;105115;1256;108000;-67
2023/04/27 11:09:54;;;;;;;4.10;2.70;;;;;;;12.35;39.21;98898.78;105261;1258;98485;-68
2023/04/27 11:12:22;;;;;;;5.20;3.60;;;;;;;12.38;39.51;98893.12;105185;1258;97873;-73
2023/04/27 11:14:57;;;;;;;7.20;3.50;;;;;;;12.54;39.32;98893.48;105343;1256;113251;-68
2023/04/27 11:17:28;;;;;;;5.70;3.10;;;;;;;12.47;39.45;98893.75;105089;1252;97990;-67
2023/04/27 11:19:55;;;;;;;5.60;3.50;;;;;;;12.61;40.06;98894.48;105263;1257;108629;-67
2023/04/27 11:22:23;;;;;;;5.20;3.20;;;;;;;12.77;40.49;98891.20;105205;1267;97920;-67
2023/04/27 11:24:51;;;;;;;5.40;3.10;;;;;;;12.82;40.34;98893.56;105556;1269;97865;-67